createdAt,value
2022-09-13T00:00:29.616Z,25.80
2022-09-13T00:10:34.916Z,25.50
2022-09-13T00:20:40.624Z,25.20
2022-09-13T00:30:44.600Z,24.90
2022-09-13T00:40:49.716Z,24.80
2022-09-13T00:50:56.321Z,24.80
2022-09-13T01:01:04.541Z,24.70
2022-09-13T01:11:13.685Z,24.80
2022-09-13T01:21:52.337Z,24.90
2022-09-13T01:32:09.046Z,24.40
2022-09-13T01:42:21.387Z,24.40
2022-09-13T01:52:32.039Z,24.40
2022-09-13T02:02:39.993Z,24.30
2022-09-13T02:12:47.046Z,24.10
2022-09-13T02:22:55.273Z,24.10
2022-09-13T02:33:06.636Z,24.20
2022-09-13T02:43:13.935Z,24.40
2022-09-13T02:53:27.187Z,24.50
2022-09-13T03:03:31.126Z,24.70
2022-09-13T03:14:00.014Z,24.90
2022-09-13T03:24:12.176Z,24.90
2022-09-13T03:34:24.987Z,25.00
2022-09-13T03:44:30.973Z,25.00
2022-09-13T03:54:39.379Z,25.00
2022-09-13T04:04:44.265Z,25.10
2022-09-13T04:14:49.473Z,25.20
2022-09-13T04:24:53.153Z,25.40
2022-09-13T04:34:58.297Z,25.40
2022-09-13T04:45:02.162Z,25.40
2022-09-13T04:55:08.507Z,25.30
2022-09-13T05:05:12.406Z,25.20
2022-09-13T05:15:17.666Z,24.90
2022-09-13T05:25:25.869Z,24.80
2022-09-13T05:35:31.228Z,24.80
2022-09-13T05:45:34.963Z,24.90
2022-09-13T05:55:40.126Z,25.00
2022-09-13T06:05:44.018Z,25.20
2022-09-13T06:15:49.220Z,25.60
2022-09-13T06:26:00.437Z,25.50
2022-09-13T06:36:07.412Z,25.60
2022-09-13T06:46:12.975Z,25.90
2022-09-13T06:56:19.755Z,26.20
2022-09-13T07:06:27.221Z,26.60
2022-09-13T07:16:34.084Z,27.10
2022-09-13T07:26:37.894Z,27.30
2022-09-13T07:36:43.602Z,27.60
2022-09-13T07:46:47.243Z,27.70
2022-09-13T07:56:52.391Z,28.00
2022-09-13T08:06:56.680Z,28.80
2022-09-13T08:17:02.298Z,28.40
2022-09-13T08:27:06.667Z,28.10
2022-09-13T08:37:13.210Z,27.70
2022-09-13T08:47:41.865Z,27.70
2022-09-13T08:57:52.463Z,27.80
2022-09-13T09:08:00.550Z,28.10
2022-09-13T09:18:11.942Z,28.90
2022-09-13T09:28:18.139Z,29.30
2022-09-13T09:38:33.396Z,29.80
2022-09-13T09:48:43.285Z,30.40
2022-09-13T09:58:48.637Z,30.30
2022-09-13T10:09:00.715Z,30.30
2022-09-13T10:19:28.700Z,29.90
2022-09-13T10:29:34.375Z,30.30
2022-09-13T10:39:50.314Z,30.90
2022-09-13T10:49:55.465Z,30.10
2022-09-13T11:00:00.511Z,29.40
2022-09-13T11:10:12.230Z,30.00
2022-09-13T11:20:29.737Z,31.20
2022-09-13T11:30:38.236Z,31.20
2022-09-13T11:40:53.220Z,31.20
2022-09-13T11:51:05.502Z,30.60
2022-09-13T12:01:13.181Z,32.00
2022-09-13T12:11:21.055Z,32.60
2022-09-13T12:21:31.333Z,32.60
2022-09-13T12:31:35.111Z,32.10
2022-09-13T12:41:57.134Z,32.10
2022-09-13T12:52:22.649Z,31.90
2022-09-13T13:02:32.717Z,31.60
2022-09-13T13:12:38.998Z,31.80
2022-09-13T13:22:53.892Z,31.30
2022-09-13T13:33:08.162Z,31.30
2022-09-13T13:43:34.990Z,31.50
2022-09-13T13:53:39.492Z,31.60
2022-09-13T14:04:21.229Z,32.40
2022-09-13T14:14:43.682Z,33.80
2022-09-13T14:24:50.086Z,34.10
2022-09-13T14:35:00.127Z,32.40
2022-09-13T14:45:05.945Z,31.70
2022-09-13T14:55:15.838Z,31.30
2022-09-13T15:05:23.319Z,31.00
2022-09-13T15:15:36.573Z,30.90
2022-09-13T15:25:41.705Z,30.30
2022-09-13T15:35:47.360Z,30.00
2022-09-13T15:45:52.542Z,29.80
2022-09-13T15:55:56.666Z,29.40
2022-09-13T16:06:01.699Z,28.80
2022-09-13T16:16:06.450Z,28.80
2022-09-13T16:26:12.524Z,28.60
2022-09-13T16:36:16.274Z,28.70
2022-09-13T16:46:21.711Z,28.40
2022-09-13T16:56:26.867Z,28.40
2022-09-13T17:06:32.180Z,28.70
2022-09-13T17:16:38.693Z,28.70
2022-09-13T17:26:45.059Z,28.20
2022-09-13T17:36:51.135Z,28.20
2022-09-13T17:46:56.519Z,27.90
2022-09-13T17:57:00.489Z,27.60
2022-09-13T18:07:05.539Z,27.50
2022-09-13T18:17:13.330Z,27.50
2022-09-13T18:27:18.397Z,27.50
2022-09-13T18:37:22.159Z,27.00
2022-09-13T18:47:27.198Z,26.90
2022-09-13T18:57:30.915Z,26.90
2022-09-13T19:07:36.104Z,27.20
2022-09-13T19:17:39.651Z,27.30
2022-09-13T19:27:45.013Z,27.40
2022-09-13T19:37:48.501Z,27.40
2022-09-13T19:48:34.836Z,27.30
2022-09-13T19:58:18.277Z,27.70
2022-09-13T20:08:26.097Z,27.50
2022-09-13T20:18:31.359Z,27.30
2022-09-13T20:28:36.534Z,27.40
2022-09-13T20:38:41.223Z,27.60
2022-09-13T20:48:46.609Z,27.40
2022-09-13T20:58:57.259Z,27.30
2022-09-13T21:09:02.957Z,27.20
2022-09-13T21:19:06.712Z,27.20
2022-09-13T21:29:13.291Z,27.40
2022-09-13T21:39:18.591Z,27.50
2022-09-13T21:49:23.737Z,27.40
2022-09-13T21:59:27.353Z,27.20
2022-09-13T22:09:32.526Z,27.00
2022-09-13T22:19:36.296Z,26.70
2022-09-13T22:29:41.370Z,26.30
2022-09-13T22:39:45.021Z,25.90
2022-09-13T22:49:50.118Z,25.80
2022-09-13T22:59:54.306Z,25.60
2022-09-13T23:09:59.240Z,25.70
2022-09-13T23:20:03.462Z,25.50
2022-09-13T23:30:09.652Z,25.80
2022-09-13T23:40:13.340Z,25.60
2022-09-13T23:50:18.718Z,25.70
